sensor_id;sensor_type;location;lat;lon;timestamp;pressure;altitude;pressure_sealevel;temperature;humidity
64362;BME280;50685;53.346;-6.296;2023-04-21T00:01:20;101985.16;;;9.16;60.74
64362;BME280;50685;53.346;-6.296;2023-04-21T00:03:45;102005.53;;;9.23;61.26
64362;BME280;50685;53.346;-6.296;2023-04-21T00:06:12;101998.38;;;9.16;61.74
64362;BME280;50685;53.346;-6.296;2023-04-21T00:08:37;101987.66;;;9.07;61.84
64362;BME280;50685;53.346;-6.296;2023-04-21T00:11:07;102033.81;;;9.27;61.83
64362;BME280;50685;53.346;-6.296;2023-04-21T00:13:33;101985.91;;;9.07;61.46
64362;BME280;50685;53.346;-6.296;2023-04-21T00:16:03;101991.16;;;9.04;60.51
64362;BME280;50685;53.346;-6.296;2023-04-21T00:18:28;101995.59;;;9.05;59.27
64362;BME280;50685;53.346;-6.296;2023-04-21T00:20:54;102004.41;;;9.06;58.35
64362;BME280;50685;53.346;-6.296;2023-04-21T00:23:22;102012.47;;;9.15;58.20
64362;BME280;50685;53.346;-6.296;2023-04-21T00:25:50;102016.91;;;9.18;57.90
64362;BME280;50685;53.346;-6.296;2023-04-21T00:28:18;102038.22;;;9.27;57.83
64362;BME280;50685;53.346;-6.296;2023-04-21T00:30:43;101974.22;;;8.90;57.04
64362;BME280;50685;53.346;-6.296;2023-04-21T00:33:08;102033.78;;;9.24;56.85
64362;BME280;50685;53.346;-6.296;2023-04-21T00:35:34;101978.69;;;8.95;57.08
64362;BME280;50685;53.346;-6.296;2023-04-21T00:38:00;102036.38;;;9.23;57.87
64362;BME280;50685;53.346;-6.296;2023-04-21T00:40:25;101975.97;;;8.86;57.24
64362;BME280;50685;53.346;-6.296;2023-04-21T00:42:51;102015.19;;;9.21;57.70
64362;BME280;50685;53.346;-6.296;2023-04-21T00:45:17;102007.16;;;9.12;58.20
64362;BME280;50685;53.346;-6.296;2023-04-21T00:47:42;102006.19;;;9.07;57.77
64362;BME280;50685;53.346;-6.296;2023-04-21T00:50:09;101991.06;;;8.96;57.69
64362;BME280;50685;53.346;-6.296;2023-04-21T00:52:35;102017.78;;;9.15;57.53
64362;BME280;50685;53.346;-6.296;2023-04-21T00:55:01;101984.84;;;8.93;58.12
64362;BME280;50685;53.346;-6.296;2023-04-21T00:57:27;102019.41;;;9.07;58.34
64362;BME280;50685;53.346;-6.296;2023-04-21T00:59:53;101978.47;;;8.80;58.69
64362;BME280;50685;53.346;-6.296;2023-04-21T01:02:19;101969.66;;;8.78;59.02
64362;BME280;50685;53.346;-6.296;2023-04-21T01:04:45;101986.53;;;8.88;59.48
64362;BME280;50685;53.346;-6.296;2023-04-21T01:07:11;101973.16;;;8.77;60.05
64362;BME280;50685;53.346;-6.296;2023-04-21T01:09:39;102015.91;;;9.06;60.81
64362;BME280;50685;53.346;-6.296;2023-04-21T01:12:10;102005.25;;;9.02;60.51
64362;BME280;50685;53.346;-6.296;2023-04-21T01:14:37;102019.41;;;9.05;61.09
64362;BME280;50685;53.346;-6.296;2023-04-21T01:17:05;102006.16;;;9.04;61.72
64362;BME280;50685;53.346;-6.296;2023-04-21T01:19:34;101950.97;;;8.65;62.34
64362;BME280;50685;53.346;-6.296;2023-04-21T01:22:04;102004.31;;;8.99;62.83
64362;BME280;50685;53.346;-6.296;2023-04-21T01:24:36;101991.94;;;8.95;63.33
64362;BME280;50685;53.346;-6.296;2023-04-21T01:27:02;101962.59;;;8.77;63.56
64362;BME280;50685;53.346;-6.296;2023-04-21T01:29:32;101959.03;;;8.75;64.49
64362;BME280;50685;53.346;-6.296;2023-04-21T01:31:58;101932.47;;;8.67;64.79
64362;BME280;50685;53.346;-6.296;2023-04-21T01:34:27;101936.06;;;8.71;65.28
64362;BME280;50685;53.346;-6.296;2023-04-21T01:36:53;101952.03;;;8.80;65.34
64362;BME280;50685;53.346;-6.296;2023-04-21T01:39:21;101946.56;;;8.67;65.42
64362;BME280;50685;53.346;-6.296;2023-04-21T01:41:47;101910.19;;;8.48;65.90
64362;BME280;50685;53.346;-6.296;2023-04-21T01:44:12;101937.78;;;8.67;66.09
64362;BME280;50685;53.346;-6.296;2023-04-21T01:46:38;101924.56;;;8.67;66.41
64362;BME280;50685;53.346;-6.296;2023-04-21T01:49:03;101890.75;;;8.46;66.67
64362;BME280;50685;53.346;-6.296;2023-04-21T01:51:29;101903.16;;;8.50;66.64
64362;BME280;50685;53.346;-6.296;2023-04-21T01:53:55;101951.88;;;8.67;67.24
64362;BME280;50685;53.346;-6.296;2023-04-21T01:56:21;101931.47;;;8.59;67.48
64362;BME280;50685;53.346;-6.296;2023-04-21T01:58:46;101950.94;;;8.64;67.78
64362;BME280;50685;53.346;-6.296;2023-04-21T02:01:12;101934.91;;;8.51;67.96
64362;BME280;50685;53.346;-6.296;2023-04-21T02:03:37;101925.97;;;8.43;68.47
64362;BME280;50685;53.346;-6.296;2023-04-21T02:06:03;101964.13;;;8.61;69.14
64362;BME280;50685;53.346;-6.296;2023-04-21T02:08:28;101969.44;;;8.62;68.57
64362;BME280;50685;53.346;-6.296;2023-04-21T02:10:54;101933.91;;;8.43;69.26
64362;BME280;50685;53.346;-6.296;2023-04-21T02:13:19;101952.63;;;8.57;69.43
64362;BME280;50685;53.346;-6.296;2023-04-21T02:15:45;101935.63;;;8.44;69.51
64362;BME280;50685;53.346;-6.296;2023-04-21T02:18:10;101898.44;;;8.30;69.61
64362;BME280;50685;53.346;-6.296;2023-04-21T02:20:36;101899.34;;;8.31;69.99
64362;BME280;50685;53.346;-6.296;2023-04-21T02:23:01;101888.03;;;8.40;70.02
64362;BME280;50685;53.346;-6.296;2023-04-21T02:25:30;101860.25;;;8.10;71.04
64362;BME280;50685;53.346;-6.296;2023-04-21T02:27:56;101876.25;;;8.17;71.46
64362;BME280;50685;53.346;-6.296;2023-04-21T02:30:22;101908.25;;;8.38;71.24
64362;BME280;50685;53.346;-6.296;2023-04-21T02:32:50;101865.69;;;8.17;71.20
64362;BME280;50685;53.346;-6.296;2023-04-21T02:35:17;101922.59;;;8.54;71.42
64362;BME280;50685;53.346;-6.296;2023-04-21T02:37:44;101906.75;;;8.54;71.38
64362;BME280;50685;53.346;-6.296;2023-04-21T02:40:10;101862.16;;;8.18;71.40
64362;BME280;50685;53.346;-6.296;2023-04-21T02:42:36;101887.13;;;8.39;71.57
64362;BME280;50685;53.346;-6.296;2023-04-21T02:45:01;101843.63;;;8.14;72.37
64362;BME280;50685;53.346;-6.296;2023-04-21T02:47:27;101901.38;;;8.49;72.74
64362;BME280;50685;53.346;-6.296;2023-04-21T02:49:52;101860.50;;;8.27;73.11
64362;BME280;50685;53.346;-6.296;2023-04-21T02:52:18;101874.69;;;8.32;73.44
64362;BME280;50685;53.346;-6.296;2023-04-21T02:54:43;101870.22;;;8.26;73.48
64362;BME280;50685;53.346;-6.296;2023-04-21T02:57:09;101903.88;;;8.40;73.64
64362;BME280;50685;53.346;-6.296;2023-04-21T02:59:34;101847.13;;;8.13;73.92
64362;BME280;50685;53.346;-6.296;2023-04-21T03:01:59;101904.81;;;8.43;73.96
64362;BME280;50685;53.346;-6.296;2023-04-21T03:04:25;101872.84;;;8.25;73.84
64362;BME280;50685;53.346;-6.296;2023-04-21T03:06:54;101847.16;;;8.16;73.70
64362;BME280;50685;53.346;-6.296;2023-04-21T03:09:19;101918.16;;;8.49;73.66
64362;BME280;50685;53.346;-6.296;2023-04-21T03:11:45;101882.88;;;8.47;73.62
64362;BME280;50685;53.346;-6.296;2023-04-21T03:14:10;101898.75;;;8.49;73.37
64362;BME280;50685;53.346;-6.296;2023-04-21T03:16:36;101863.31;;;8.39;73.36
64362;BME280;50685;53.346;-6.296;2023-04-21T03:19:01;101832.25;;;8.21;73.34
64362;BME280;50685;53.346;-6.296;2023-04-21T03:21:27;101867.72;;;8.37;72.77
64362;BME280;50685;53.346;-6.296;2023-04-21T03:23:52;101871.16;;;8.33;72.73
64362;BME280;50685;53.346;-6.296;2023-04-21T03:26:18;101913.63;;;8.44;72.35
64362;BME280;50685;53.346;-6.296;2023-04-21T03:28:43;101883.44;;;8.28;72.72
64362;BME280;50685;53.346;-6.296;2023-04-21T03:31:09;101886.16;;;8.32;72.23
64362;BME280;50685;53.346;-6.296;2023-04-21T03:33:34;101889.81;;;8.44;72.37
64362;BME280;50685;53.346;-6.296;2023-04-21T03:36:00;101873.88;;;8.38;72.32
64362;BME280;50685;53.346;-6.296;2023-04-21T03:38:27;101863.31;;;8.38;71.69
64362;BME280;50685;53.346;-6.296;2023-04-21T03:40:53;101834.00;;;8.22;71.66
64362;BME280;50685;53.346;-6.296;2023-04-21T03:43:21;101846.44;;;8.29;71.62
64362;BME280;50685;53.346;-6.296;2023-04-21T03:45:46;101869.72;;;8.52;71.43
64362;BME280;50685;53.346;-6.296;2023-04-21T03:48:12;101851.81;;;8.34;71.21
64362;BME280;50685;53.346;-6.296;2023-04-21T03:50:41;101835.09;;;8.36;71.27
64362;BME280;50685;53.346;-6.296;2023-04-21T03:53:12;101861.59;;;8.43;71.10
64362;BME280;50685;53.346;-6.296;2023-04-21T03:55:37;101832.44;;;8.36;70.99
64362;BME280;50685;53.346;-6.296;2023-04-21T03:58:03;101865.38;;;8.57;71.55
64362;BME280;50685;53.346;-6.296;2023-04-21T04:00:28;101801.44;;;8.23;71.16
64362;BME280;50685;53.346;-6.296;2023-04-21T04:02:54;101853.00;;;8.58;71.87
64362;BME280;50685;53.346;-6.296;2023-04-21T04:05:19;101805.94;;;8.29;72.67
64362;BME280;50685;53.346;-6.296;2023-04-21T04:07:48;101801.50;;;8.26;73.36
64362;BME280;50685;53.346;-6.296;2023-04-21T04:10:16;101814.88;;;8.39;73.65
64362;BME280;50685;53.346;-6.296;2023-04-21T04:12:41;101794.44;;;8.28;74.41
64362;BME280;50685;53.346;-6.296;2023-04-21T04:15:07;101808.75;;;8.44;74.49
64362;BME280;50685;53.346;-6.296;2023-04-21T04:17:55;101778.50;;;8.19;75.08
64362;BME280;50685;53.346;-6.296;2023-04-21T04:20:21;101779.44;;;8.24;75.04
64362;BME280;50685;53.346;-6.296;2023-04-21T04:22:46;101828.34;;;8.57;75.33
64362;BME280;50685;53.346;-6.296;2023-04-21T04:25:12;101822.94;;;8.48;75.24
64362;BME280;50685;53.346;-6.296;2023-04-21T04:27:42;101794.38;;;8.22;75.42
64362;BME280;50685;53.346;-6.296;2023-04-21T04:30:15;101781.16;;;8.22;75.25
64362;BME280;50685;53.346;-6.296;2023-04-21T04:32:41;101812.25;;;8.42;75.03
64362;BME280;50685;53.346;-6.296;2023-04-21T04:35:08;101802.50;;;8.36;74.88
64362;BME280;50685;53.346;-6.296;2023-04-21T04:37:39;101814.13;;;8.49;74.73
64362;BME280;50685;53.346;-6.296;2023-04-21T04:40:11;101828.41;;;8.63;74.14
64362;BME280;50685;53.346;-6.296;2023-04-21T04:42:37;101834.59;;;8.64;74.06
64362;BME280;50685;53.346;-6.296;2023-04-21T04:45:05;101790.22;;;8.43;74.00
64362;BME280;50685;53.346;-6.296;2023-04-21T04:47:33;101822.28;;;8.67;73.91
64362;BME280;50685;53.346;-6.296;2023-04-21T04:49:58;101801.03;;;8.57;73.59
64362;BME280;50685;53.346;-6.296;2023-04-21T04:52:24;101795.78;;;8.61;73.56
64362;BME280;50685;53.346;-6.296;2023-04-21T04:54:50;101752.28;;;8.38;73.22
64362;BME280;50685;53.346;-6.296;2023-04-21T04:57:15;101805.56;;;8.70;73.26
64362;BME280;50685;53.346;-6.296;2023-04-21T04:59:41;101762.06;;;8.43;72.96
64362;BME280;50685;53.346;-6.296;2023-04-21T05:02:06;101801.19;;;8.71;72.80
64362;BME280;50685;53.346;-6.296;2023-04-21T05:04:35;101802.06;;;8.71;72.85
64362;BME280;50685;53.346;-6.296;2023-04-21T05:07:01;101792.28;;;8.64;72.73
64362;BME280;50685;53.346;-6.296;2023-04-21T05:09:26;101784.31;;;8.62;72.70
64362;BME280;50685;53.346;-6.296;2023-04-21T05:11:52;101757.66;;;8.44;72.86
64362;BME280;50685;53.346;-6.296;2023-04-21T05:14:17;101775.41;;;8.51;73.26
64362;BME280;50685;53.346;-6.296;2023-04-21T05:16:43;101795.97;;;8.78;73.54
64362;BME280;50685;53.346;-6.296;2023-04-21T05:19:08;101743.63;;;8.48;73.59
64362;BME280;50685;53.346;-6.296;2023-04-21T05:21:34;101766.66;;;8.58;74.26
64362;BME280;50685;53.346;-6.296;2023-04-21T05:24:02;101748.00;;;8.46;74.33
64362;BME280;50685;53.346;-6.296;2023-04-21T05:26:28;101741.88;;;8.48;74.39
64362;BME280;50685;53.346;-6.296;2023-04-21T05:28:55;101738.28;;;8.45;74.82
64362;BME280;50685;53.346;-6.296;2023-04-21T05:31:21;101754.25;;;8.51;75.41
64362;BME280;50685;53.346;-6.296;2023-04-21T05:33:49;101746.22;;;8.45;75.16
64362;BME280;50685;53.346;-6.296;2023-04-21T05:36:15;101788.81;;;8.71;76.02
64362;BME280;50685;53.346;-6.296;2023-04-21T05:38:41;101780.81;;;8.63;76.98
64362;BME280;50685;53.346;-6.296;2023-04-21T05:41:07;101779.91;;;8.61;77.26
64362;BME280;50685;53.346;-6.296;2023-04-21T05:43:33;101770.16;;;8.57;77.76
64362;BME280;50685;53.346;-6.296;2023-04-21T05:45:59;101743.44;;;8.35;78.07
64362;BME280;50685;53.346;-6.296;2023-04-21T05:48:26;101738.13;;;8.32;78.28
64362;BME280;50685;53.346;-6.296;2023-04-21T05:50:53;101736.34;;;8.30;78.84
64362;BME280;50685;53.346;-6.296;2023-04-21T05:53:19;101771.84;;;8.49;79.26
64362;BME280;50685;53.346;-6.296;2023-04-21T05:55:44;101756.72;;;8.39;80.38
64362;BME280;50685;53.346;-6.296;2023-04-21T05:58:10;101763.72;;;8.36;80.99
64362;BME280;50685;53.346;-6.296;2023-04-21T06:00:35;101757.50;;;8.33;81.18
64362;BME280;50685;53.346;-6.296;2023-04-21T06:03:01;101712.31;;;8.10;81.24
64362;BME280;50685;53.346;-6.296;2023-04-21T06:05:26;101739.78;;;8.21;81.66
64362;BME280;50685;53.346;-6.296;2023-04-21T06:07:52;101749.56;;;8.30;81.43
64362;BME280;50685;53.346;-6.296;2023-04-21T06:10:17;101755.78;;;8.33;81.33
64362;BME280;50685;53.346;-6.296;2023-04-21T06:12:43;101777.94;;;8.45;81.65
64362;BME280;50685;53.346;-6.296;2023-04-21T06:15:09;101794.84;;;8.56;81.71
64362;BME280;50685;53.346;-6.296;2023-04-21T06:17:34;101755.00;;;8.41;81.18
64362;BME280;50685;53.346;-6.296;2023-04-21T06:20:00;101723.03;;;8.22;81.61
64362;BME280;50685;53.346;-6.296;2023-04-21T06:22:26;101747.94;;;8.44;81.30
64362;BME280;50685;53.346;-6.296;2023-04-21T06:25:28;101780.03;;;8.71;80.92
64362;BME280;50685;53.346;-6.296;2023-04-21T06:27:50;101744.78;;;8.73;80.66
64362;BME280;50685;53.346;-6.296;2023-04-21T06:30:16;101750.13;;;8.81;80.64
64362;BME280;50685;53.346;-6.296;2023-04-21T06:32:42;101691.66;;;8.48;80.64
64362;BME280;50685;53.346;-6.296;2023-04-21T06:35:10;101710.44;;;8.78;79.92
64362;BME280;50685;53.346;-6.296;2023-04-21T06:37:36;101691.03;;;8.77;79.34
64362;BME280;50685;53.346;-6.296;2023-04-21T06:40:04;101729.19;;;9.01;79.08
64362;BME280;50685;53.346;-6.296;2023-04-21T06:42:32;101710.56;;;8.92;78.69
64362;BME280;50685;53.346;-6.296;2023-04-21T06:44:58;101670.72;;;8.73;78.15
64362;BME280;50685;53.346;-6.296;2023-04-21T06:47:23;101671.66;;;8.77;78.07
64362;BME280;50685;53.346;-6.296;2023-04-21T06:49:49;101712.50;;;9.13;77.69
64362;BME280;50685;53.346;-6.296;2023-04-21T06:52:15;101718.75;;;9.21;77.35
64362;BME280;50685;53.346;-6.296;2023-04-21T06:54:40;101677.19;;;9.08;76.72
64362;BME280;50685;53.346;-6.296;2023-04-21T06:57:06;101657.75;;;9.04;76.39
64362;BME280;50685;53.346;-6.296;2023-04-21T06:59:32;101711.84;;;9.42;76.18
64362;BME280;50685;53.346;-6.296;2023-04-21T07:01:58;101652.47;;;9.06;75.71
64362;BME280;50685;53.346;-6.296;2023-04-21T07:04:24;101695.91;;;9.39;75.74
64362;BME280;50685;53.346;-6.296;2023-04-21T07:06:54;101683.50;;;9.27;75.90
64362;BME280;50685;53.346;-6.296;2023-04-21T07:09:20;101700.34;;;9.40;76.07
64362;BME280;50685;53.346;-6.296;2023-04-21T07:11:48;101703.00;;;9.40;76.26
64362;BME280;50685;53.346;-6.296;2023-04-21T07:14:14;101679.13;;;9.30;76.38
64362;BME280;50685;53.346;-6.296;2023-04-21T07:24:34;101694.25;;;9.53;76.93
64362;BME280;50685;53.346;-6.296;2023-04-21T07:27:07;101665.03;;;9.35;76.78
64362;BME280;50685;53.346;-6.296;2023-04-21T07:30:07;101682.75;;;9.51;77.09
64362;BME280;50685;53.346;-6.296;2023-04-21T07:32:55;101614.66;;;9.22;76.88
64362;BME280;50685;53.346;-6.296;2023-04-21T07:35:24;101637.63;;;9.32;76.86
64362;BME280;50685;53.346;-6.296;2023-04-21T07:37:50;101634.16;;;9.40;76.95
64362;BME280;50685;53.346;-6.296;2023-04-21T07:40:18;101628.00;;;9.41;76.80
64362;BME280;50685;53.346;-6.296;2023-04-21T07:42:44;101638.66;;;9.53;76.40
64362;BME280;50685;53.346;-6.296;2023-04-21T07:45:09;101654.59;;;9.67;76.03
64362;BME280;50685;53.346;-6.296;2023-04-21T07:47:35;101628.06;;;9.55;75.96
64362;BME280;50685;53.346;-6.296;2023-04-21T07:50:00;101629.84;;;9.63;75.19
64362;BME280;50685;53.346;-6.296;2023-04-21T07:52:26;101618.41;;;9.68;74.74
64362;BME280;50685;53.346;-6.296;2023-04-21T07:54:54;101638.81;;;9.93;74.44
64362;BME280;50685;53.346;-6.296;2023-04-21T07:57:21;101596.44;;;9.92;73.65
64362;BME280;50685;53.346;-6.296;2023-04-21T07:59:47;101609.75;;;10.29;72.56
64362;BME280;50685;53.346;-6.296;2023-04-21T08:02:12;101620.41;;;10.46;71.69
64362;BME280;50685;53.346;-6.296;2023-04-21T08:04:40;101640.75;;;10.69;71.34
64362;BME280;50685;53.346;-6.296;2023-04-21T08:07:05;101608.94;;;10.84;71.08
64362;BME280;50685;53.346;-6.296;2023-04-21T08:09:33;101638.09;;;11.03;70.89
64362;BME280;50685;53.346;-6.296;2023-04-21T08:11:58;101634.56;;;10.99;70.92
64362;BME280;50685;53.346;-6.296;2023-04-21T08:14:24;101674.34;;;11.08;71.00
64362;BME280;50685;53.346;-6.296;2023-04-21T08:16:50;101634.59;;;10.68;71.84
64362;BME280;50685;53.346;-6.296;2023-04-21T08:19:17;101665.50;;;10.80;72.72
64362;BME280;50685;53.346;-6.296;2023-04-21T08:21:43;101664.63;;;10.93;73.22
64362;BME280;50685;53.346;-6.296;2023-04-21T08:24:08;101625.69;;;11.09;72.22
64362;BME280;50685;53.346;-6.296;2023-04-21T08:26:34;101653.03;;;11.58;71.39
64362;BME280;50685;53.346;-6.296;2023-04-21T08:28:59;101657.31;;;11.93;70.18
64362;BME280;50685;53.346;-6.296;2023-04-21T08:31:25;101599.72;;;11.94;69.14
64362;BME280;50685;53.346;-6.296;2023-04-21T08:33:52;101630.41;;;12.52;68.04
64362;BME280;50685;53.346;-6.296;2023-04-21T08:36:18;101625.72;;;12.85;66.24
64362;BME280;50685;53.346;-6.296;2023-04-21T08:38:44;101621.94;;;13.09;64.33
64362;BME280;50685;53.346;-6.296;2023-04-21T08:41:10;101596.06;;;13.24;64.68
64362;BME280;50685;53.346;-6.296;2023-04-21T08:43:36;101596.34;;;13.75;63.76
64362;BME280;50685;53.346;-6.296;2023-04-21T08:46:07;101587.97;;;14.02;62.22
64362;BME280;50685;53.346;-6.296;2023-04-21T08:48:36;101587.81;;;14.14;60.54
64362;BME280;50685;53.346;-6.296;2023-04-21T08:51:04;101579.50;;;13.73;61.17
64362;BME280;50685;53.346;-6.296;2023-04-21T08:53:29;101591.59;;;13.24;62.01
64362;BME280;50685;53.346;-6.296;2023-04-21T08:55:55;101565.41;;;12.79;61.99
64362;BME280;50685;53.346;-6.296;2023-04-21T08:58:22;101563.97;;;12.44;62.46
64362;BME280;50685;53.346;-6.296;2023-04-21T09:00:51;101593.38;;;12.21;63.26
64362;BME280;50685;53.346;-6.296;2023-04-21T09:03:24;101575.81;;;11.94;63.13
64362;BME280;50685;53.346;-6.296;2023-04-21T09:05:57;101580.31;;;11.74;63.44
64362;BME280;50685;53.346;-6.296;2023-04-21T09:08:23;101545.94;;;11.42;63.35
64362;BME280;50685;53.346;-6.296;2023-04-21T09:10:54;101586.66;;;11.50;64.33
64362;BME280;50685;53.346;-6.296;2023-04-21T09:13:28;101577.84;;;11.31;64.76
64362;BME280;50685;53.346;-6.296;2023-04-21T09:15:54;101575.22;;;11.23;65.90
64362;BME280;50685;53.346;-6.296;2023-04-21T09:18:25;101548.72;;;11.02;66.48
64362;BME280;50685;53.346;-6.296;2023-04-21T09:21:13;101573.47;;;11.08;67.72
64362;BME280;50685;53.346;-6.296;2023-04-21T09:24:03;101580.56;;;11.19;68.20
64362;BME280;50685;53.346;-6.296;2023-04-21T09:26:29;101569.09;;;11.07;68.77
64362;BME280;50685;53.346;-6.296;2023-04-21T09:28:58;101563.75;;;11.04;69.21
64362;BME280;50685;53.346;-6.296;2023-04-21T09:31:23;101562.88;;;11.12;69.11
64362;BME280;50685;53.346;-6.296;2023-04-21T09:33:51;101563.75;;;11.12;69.09
64362;BME280;50685;53.346;-6.296;2023-04-21T09:36:22;101561.97;;;11.16;68.91
64362;BME280;50685;53.346;-6.296;2023-04-21T09:38:49;101548.75;;;11.05;68.44
64362;BME280;50685;53.346;-6.296;2023-04-21T09:41:17;101560.19;;;11.16;68.47
64362;BME280;50685;53.346;-6.296;2023-04-21T09:43:43;101553.09;;;11.23;68.47
64362;BME280;50685;53.346;-6.296;2023-04-21T09:46:11;101526.56;;;11.17;68.20
64362;BME280;50685;53.346;-6.296;2023-04-21T09:48:40;101545.09;;;11.34;68.00
64362;BME280;50685;53.346;-6.296;2023-04-21T09:51:07;101538.88;;;11.32;67.97
64362;BME280;50685;53.346;-6.296;2023-04-21T09:53:33;101523.88;;;11.26;67.94
64362;BME280;50685;53.346;-6.296;2023-04-21T09:56:12;101549.47;;;11.47;67.63
64362;BME280;50685;53.346;-6.296;2023-04-21T09:58:52;101527.31;;;11.45;67.34
64362;BME280;50685;53.346;-6.296;2023-04-21T10:01:19;101535.19;;;11.64;67.32
64362;BME280;50685;53.346;-6.296;2023-04-21T10:03:47;101529.03;;;11.58;67.14
64362;BME280;50685;53.346;-6.296;2023-04-21T10:06:13;101526.38;;;11.62;66.66
64362;BME280;50685;53.346;-6.296;2023-04-21T10:08:39;101517.47;;;11.67;66.96
64362;BME280;50685;53.346;-6.296;2023-04-21T10:11:05;101508.59;;;11.76;66.63
64362;BME280;50685;53.346;-6.296;2023-04-21T10:13:32;101488.28;;;11.64;66.41
64362;BME280;50685;53.346;-6.296;2023-04-21T10:16:08;101498.03;;;11.61;66.67
64362;BME280;50685;53.346;-6.296;2023-04-21T10:18:34;101528.16;;;11.58;67.08
64362;BME280;50685;53.346;-6.296;2023-04-21T10:21:10;101514.88;;;11.55;67.36
64362;BME280;50685;53.346;-6.296;2023-04-21T10:23:44;101518.34;;;11.74;66.81
64362;BME280;50685;53.346;-6.296;2023-04-21T10:26:12;101505.94;;;11.71;66.90
64362;BME280;50685;53.346;-6.296;2023-04-21T10:29:07;101518.38;;;11.68;66.80
64362;BME280;50685;53.346;-6.296;2023-04-21T10:31:50;101510.44;;;11.60;67.71
64362;BME280;50685;53.346;-6.296;2023-04-21T10:34:18;101493.69;;;11.44;68.12
64362;BME280;50685;53.346;-6.296;2023-04-21T10:39:09;101491.75;;;11.71;67.50
64362;BME280;50685;53.346;-6.296;2023-04-21T10:41:42;101482.72;;;12.01;67.00
64362;BME280;50685;53.346;-6.296;2023-04-21T10:44:14;101474.63;;;12.15;66.24
64362;BME280;50685;53.346;-6.296;2023-04-21T10:46:47;101483.25;;;12.45;65.65
64362;BME280;50685;53.346;-6.296;2023-04-21T10:49:25;101477.72;;;12.65;64.89
64362;BME280;50685;53.346;-6.296;2023-04-21T10:57:07;101450.22;;;13.41;62.66
64362;BME280;50685;53.346;-6.296;2023-04-21T10:59:36;101455.25;;;13.63;62.11
64362;BME280;50685;53.346;-6.296;2023-04-21T11:02:20;101444.59;;;13.61;61.04
64362;BME280;50685;53.346;-6.296;2023-04-21T11:04:49;101442.16;;;13.46;60.75
64362;BME280;50685;53.346;-6.296;2023-04-21T11:07:18;101452.03;;;13.36;61.18
64362;BME280;50685;53.346;-6.296;2023-04-21T11:09:48;101443.19;;;13.34;60.70
64362;BME280;50685;53.346;-6.296;2023-04-21T11:12:20;101415.03;;;13.14;61.09
64362;BME280;50685;53.346;-6.296;2023-04-21T11:14:48;101424.56;;;13.31;60.90
64362;BME280;50685;53.346;-6.296;2023-04-21T11:17:15;101404.34;;;13.16;60.40
64362;BME280;50685;53.346;-6.296;2023-04-21T11:19:48;101413.13;;;13.24;60.23
64362;BME280;50685;53.346;-6.296;2023-04-21T11:22:18;101413.97;;;13.25;59.95
64362;BME280;50685;53.346;-6.296;2023-04-21T11:24:44;101410.59;;;13.13;59.41
64362;BME280;50685;53.346;-6.296;2023-04-21T11:27:10;101446.75;;;13.31;60.28
64362;BME280;50685;53.346;-6.296;2023-04-21T11:29:37;101412.41;;;13.10;60.18
64362;BME280;50685;53.346;-6.296;2023-04-21T11:32:05;101426.72;;;13.02;61.33
64362;BME280;50685;53.346;-6.296;2023-04-21T11:34:30;101409.16;;;12.88;61.26
64362;BME280;50685;53.346;-6.296;2023-04-21T11:36:56;101401.13;;;12.91;61.70
64362;BME280;50685;53.346;-6.296;2023-04-21T11:39:21;101377.19;;;12.91;61.78
64362;BME280;50685;53.346;-6.296;2023-04-21T11:41:48;101376.03;;;13.10;61.10
64362;BME280;50685;53.346;-6.296;2023-04-21T11:44:36;101403.06;;;13.46;59.87
64362;BME280;50685;53.346;-6.296;2023-04-21T11:47:20;101374.88;;;13.30;59.94
64362;BME280;50685;53.346;-6.296;2023-04-21T11:49:57;101390.75;;;13.38;59.90
64362;BME280;50685;53.346;-6.296;2023-04-21T11:52:29;101399.56;;;13.43;59.95
64362;BME280;50685;53.346;-6.296;2023-04-21T11:55:01;101386.97;;;13.53;59.86
64362;BME280;50685;53.346;-6.296;2023-04-21T11:57:28;101346.16;;;13.49;59.04
64362;BME280;50685;53.346;-6.296;2023-04-21T11:59:57;101375.97;;;13.74;58.63
64362;BME280;50685;53.346;-6.296;2023-04-21T12:02:27;101375.81;;;13.84;58.76
64362;BME280;50685;53.346;-6.296;2023-04-21T12:05:04;101344.69;;;13.86;58.31
64362;BME280;50685;53.346;-6.296;2023-04-21T12:07:37;101346.25;;;13.97;57.44
64362;BME280;50685;53.346;-6.296;2023-04-21T12:10:17;101333.88;;;13.93;57.21
64362;BME280;50685;53.346;-6.296;2023-04-21T12:12:43;101340.03;;;13.97;57.20
64362;BME280;50685;53.346;-6.296;2023-04-21T12:15:12;101304.63;;;13.89;56.61
64362;BME280;50685;53.346;-6.296;2023-04-21T12:17:47;101327.31;;;14.11;56.57
64362;BME280;50685;53.346;-6.296;2023-04-21T12:20:18;101318.22;;;14.23;56.63
64362;BME280;50685;53.346;-6.296;2023-04-21T12:22:46;101313.44;;;14.39;55.88
64362;BME280;50685;53.346;-6.296;2023-04-21T12:25:12;101298.09;;;14.51;55.46
64362;BME280;50685;53.346;-6.296;2023-04-21T12:27:50;101292.19;;;14.77;54.29
64362;BME280;50685;53.346;-6.296;2023-04-21T12:30:16;101291.69;;;15.00;54.43
64362;BME280;50685;53.346;-6.296;2023-04-21T12:32:42;101265.44;;;14.80;52.73
64362;BME280;50685;53.346;-6.296;2023-04-21T12:35:08;101307.22;;;14.83;53.65
64362;BME280;50685;53.346;-6.296;2023-04-21T12:37:36;101292.19;;;14.77;53.83
64362;BME280;50685;53.346;-6.296;2023-04-21T12:40:01;101290.03;;;14.94;53.97
64362;BME280;50685;53.346;-6.296;2023-04-21T12:42:29;101300.00;;;15.25;53.30
64362;BME280;50685;53.346;-6.296;2023-04-21T12:44:56;101280.53;;;15.19;53.41
64362;BME280;50685;53.346;-6.296;2023-04-21T12:47:23;101274.13;;;14.90;53.29
64362;BME280;50685;53.346;-6.296;2023-04-21T12:49:49;101273.69;;;14.69;54.07
64362;BME280;50685;53.346;-6.296;2023-04-21T12:52:14;101271.94;;;14.68;54.23
64362;BME280;50685;53.346;-6.296;2023-04-21T12:54:42;101248.38;;;14.86;53.73
64362;BME280;50685;53.346;-6.296;2023-04-21T12:57:08;101259.31;;;15.13;53.25
64362;BME280;50685;53.346;-6.296;2023-04-21T12:59:34;101244.75;;;15.26;52.44
64362;BME280;50685;53.346;-6.296;2023-04-21T13:01:59;101235.81;;;15.27;51.96
64362;BME280;50685;53.346;-6.296;2023-04-21T13:04:25;101250.41;;;15.50;51.99